createdAt,value
2019-04-14T00:00:12.237Z,44.9
2019-04-14T00:05:14.759Z,43.5
2019-04-14T00:10:18.120Z,41
2019-04-14T00:15:29.116Z,41.9
2019-04-14T00:20:22.818Z,40
2019-04-14T00:25:24.653Z,42.3
2019-04-14T00:30:27.286Z,39.3
2019-04-14T00:35:29.882Z,39.4
2019-04-14T00:40:32.984Z,41.9
2019-04-14T00:45:42.498Z,41.9
2019-04-14T00:50:36.770Z,39.4
2019-04-14T00:55:40.078Z,37.2
2019-04-14T01:00:42.688Z,38
2019-04-14T01:05:44.152Z,39.9
2019-04-14T01:10:47.584Z,45.4
2019-04-14T01:15:58.354Z,63.1
2019-04-14T01:20:51.597Z,68.2
2019-04-14T01:25:54.238Z,70.1
2019-04-14T01:30:56.655Z,75.1
2019-04-14T01:35:59.597Z,75.1
2019-04-14T01:41:02.108Z,75
2019-04-14T01:46:11.379Z,76.6
2019-04-14T01:51:07.042Z,74.9
2019-04-14T01:56:08.744Z,71.3
2019-04-14T02:01:11.225Z,72.4
2019-04-14T02:06:13.677Z,72.5
2019-04-14T02:11:16.087Z,74.8
2019-04-14T02:16:28.658Z,86.9
2019-04-14T02:21:21.573Z,90.2
2019-04-14T02:26:24.046Z,91.7
2019-04-14T02:31:43.090Z,96.2
2019-04-14T02:36:56.136Z,99.9
2019-04-14T02:42:06.576Z,99.9
2019-04-14T02:47:03.181Z,99.9
2019-04-14T02:52:03.888Z,99.9
2019-04-14T02:57:09.489Z,99.9
2019-04-14T03:12:08.999Z,99.9
2019-04-14T03:17:20.901Z,99.9
2019-04-14T03:27:22.105Z,58.3
2019-04-14T03:32:35.555Z,18.4
2019-04-14T03:42:28.445Z,1
2019-04-14T03:47:24.723Z,1
2019-04-14T03:52:47.582Z,1
2019-04-14T04:02:10.139Z,1
2019-04-14T04:07:12.582Z,1
2019-04-14T04:12:16.020Z,1
2019-04-14T04:17:17.511Z,1
2019-04-14T04:22:19.946Z,1
2019-04-14T04:27:22.438Z,1
2019-04-14T04:32:25.383Z,1
2019-04-14T04:37:27.900Z,1
2019-04-14T04:42:30.801Z,1
2019-04-14T04:47:33.690Z,1
2019-04-14T04:52:34.703Z,1
2019-04-14T04:57:37.404Z,1
2019-04-14T05:02:39.733Z,1
2019-04-14T05:07:42.628Z,1
2019-04-14T05:12:45.629Z,1
2019-04-14T05:17:47.483Z,1
2019-04-14T05:22:50.678Z,1
2019-04-14T05:27:51.887Z,1
2019-04-14T05:32:54.425Z,1
2019-04-14T05:37:57.284Z,1
2019-04-14T05:43:00.224Z,1
2019-04-14T05:48:03.193Z,1
2019-04-14T05:53:04.375Z,1.8
2019-04-14T05:58:07.795Z,9.2
2019-04-14T06:03:10.173Z,18
2019-04-14T06:08:11.607Z,36.8
2019-04-14T06:13:13.997Z,53
2019-04-14T06:18:16.898Z,74.5
2019-04-14T06:23:18.945Z,93.3
2019-04-14T06:28:21.445Z,99.9
2019-04-14T06:33:23.830Z,99.9
2019-04-14T06:38:26.372Z,99.9
2019-04-14T06:43:28.790Z,99.9
2019-04-14T06:48:31.673Z,99.9
2019-04-14T06:53:33.684Z,99.9
2019-04-14T06:58:36.132Z,99.9
2019-04-14T07:03:38.687Z,99.9
2019-04-14T07:08:41.173Z,99.4
2019-04-14T07:13:47.786Z,99.9
2019-04-14T07:18:46.511Z,94.3
2019-04-14T07:23:48.498Z,79.6
2019-04-14T07:28:56.391Z,50.7
2019-04-14T07:33:53.478Z,37.2
2019-04-14T07:38:55.870Z,32.9
2019-04-14T07:43:58.437Z,29.1
2019-04-14T07:49:01.095Z,28.3
2019-04-14T07:54:03.229Z,24.3
2019-04-14T07:59:05.750Z,15.1
2019-04-14T08:04:08.201Z,9.8
2019-04-14T08:09:10.655Z,3.3
2019-04-14T08:14:13.081Z,1
2019-04-14T08:19:16.027Z,1
2019-04-14T08:24:18.014Z,1
2019-04-14T08:29:20.472Z,1
2019-04-14T08:34:22.969Z,1
2019-04-14T08:39:25.493Z,1
2019-04-14T08:44:27.874Z,1
2019-04-14T08:49:30.435Z,1
2019-04-14T08:54:32.794Z,1
2019-04-14T08:59:35.329Z,1
2019-04-14T09:04:38.181Z,1
2019-04-14T09:09:40.213Z,1
2019-04-14T09:14:42.702Z,1
2019-04-14T09:19:45.216Z,1
2019-04-14T09:24:47.587Z,1
2019-04-14T09:29:52.171Z,1
2019-04-14T09:34:52.820Z,1
2019-04-14T09:39:55.053Z,1
2019-04-14T09:44:57.410Z,1
2019-04-14T09:49:59.966Z,1
2019-04-14T09:55:02.347Z,1
2019-04-14T10:00:04.873Z,1
2019-04-14T10:05:07.618Z,1
2019-04-14T10:10:09.705Z,1
2019-04-14T10:15:12.209Z,1
2019-04-14T10:20:14.687Z,1
2019-04-14T10:30:19.513Z,1
2019-04-14T10:35:22.468Z,1
2019-04-14T10:40:24.455Z,1
2019-04-14T10:45:26.893Z,1
2019-04-14T10:50:30.904Z,1
2019-04-14T10:55:31.793Z,1
2019-04-14T11:00:34.294Z,1
2019-04-14T11:05:36.721Z,1
2019-04-14T11:10:39.223Z,1
2019-04-14T11:15:41.692Z,1
2019-04-14T11:20:44.168Z,1
2019-04-14T11:25:46.573Z,1
2019-04-14T11:30:49.018Z,1
2019-04-14T11:35:51.556Z,1
2019-04-14T11:40:53.956Z,1
2019-04-14T11:45:56.472Z,1
2019-04-14T11:50:58.990Z,1
2019-04-14T11:56:01.296Z,1
2019-04-14T12:01:03.778Z,1
2019-04-14T12:06:06.208Z,1
2019-04-14T12:11:08.664Z,1
2019-04-14T12:16:11.156Z,1
2019-04-14T12:21:13.592Z,1
2019-04-14T12:26:16.037Z,1
2019-04-14T12:31:19.525Z,1
2019-04-14T12:36:21.001Z,1
2019-04-14T12:41:24.155Z,1
2019-04-14T12:46:25.890Z,1
2019-04-14T12:51:28.452Z,1
2019-04-14T12:56:30.873Z,1
2019-04-14T13:01:33.250Z,1
2019-04-14T13:06:35.829Z,1
2019-04-14T13:11:38.301Z,1
2019-04-14T13:16:40.684Z,1
2019-04-14T13:21:43.443Z,1
2019-04-14T13:26:45.619Z,1
2019-04-14T13:31:48.078Z,1
2019-04-14T13:36:50.645Z,1
2019-04-14T13:41:52.931Z,1
2019-04-14T13:46:55.371Z,1
2019-04-14T13:51:58.376Z,1
2019-04-14T13:57:00.288Z,1
2019-04-14T14:02:02.771Z,1
2019-04-14T14:07:05.296Z,1
2019-04-14T14:12:07.677Z,1
2019-04-14T14:17:10.125Z,1
2019-04-14T14:22:14.060Z,1
2019-04-14T14:27:15.063Z,1
2019-04-14T14:32:17.490Z,1
2019-04-14T14:37:19.941Z,1
2019-04-14T14:42:22.390Z,1
2019-04-14T14:47:24.861Z,1
2019-04-14T14:52:27.411Z,1
2019-04-14T14:57:29.792Z,1
2019-04-14T15:02:32.239Z,1
2019-04-14T15:07:34.725Z,1
2019-04-14T15:12:37.152Z,1
2019-04-14T15:17:39.608Z,1
2019-04-14T15:22:42.488Z,1
2019-04-14T15:27:44.512Z,1
2019-04-14T15:32:47.089Z,1
2019-04-14T15:37:49.475Z,1
2019-04-14T15:42:51.872Z,1
2019-04-14T15:47:54.392Z,1
2019-04-14T15:52:56.891Z,1
2019-04-14T15:57:59.248Z,1
2019-04-14T16:03:01.718Z,1
2019-04-14T16:08:04.209Z,1
2019-04-14T16:13:06.940Z,1
2019-04-14T16:18:09.084Z,1
2019-04-14T16:33:16.527Z,1
2019-04-14T16:38:18.985Z,1
2019-04-14T16:43:21.417Z,1
2019-04-14T16:48:23.825Z,3.1
2019-04-14T16:53:26.307Z,6.1
2019-04-14T16:58:29.149Z,16
2019-04-14T17:03:31.210Z,17.8
2019-04-14T17:08:33.696Z,18.7
2019-04-14T17:13:36.137Z,21.2
2019-04-14T17:18:38.650Z,27.2
2019-04-14T17:23:41.038Z,51.6
2019-04-14T17:28:43.846Z,82.1
2019-04-14T17:33:45.939Z,88.1
2019-04-14T17:38:48.440Z,96.3
2019-04-14T17:43:50.878Z,99.1
2019-04-14T17:48:53.346Z,99.9
2019-04-14T17:53:55.815Z,99.9
2019-04-14T17:58:58.406Z,99.9
2019-04-14T18:04:00.735Z,99.9
2019-04-14T18:09:03.276Z,99.9
2019-04-14T18:14:05.657Z,99.9
2019-04-14T18:19:08.109Z,99.9
2019-04-14T18:24:10.552Z,99.9
2019-04-14T18:29:13.360Z,99.9
2019-04-14T18:34:15.500Z,99.9
2019-04-14T18:39:18.018Z,99.9
2019-04-14T18:44:20.456Z,99.9
2019-04-14T18:49:22.896Z,99.9
2019-04-14T18:54:25.346Z,99.9
2019-04-14T18:59:28.188Z,99.9
2019-04-14T19:04:30.347Z,99.9
2019-04-14T19:09:32.821Z,99.9
2019-04-14T19:14:35.215Z,99.9
2019-04-14T19:19:37.657Z,99.9
2019-04-14T19:24:40.193Z,99.9
2019-04-14T19:29:42.666Z,99.9
2019-04-14T19:34:45.055Z,99.9
2019-04-14T19:39:47.493Z,99.9
2019-04-14T19:44:49.963Z,99.9
2019-04-14T19:49:52.407Z,99.9
2019-04-14T19:54:54.945Z,99.9
2019-04-14T20:04:59.901Z,99.9
2019-04-14T20:10:02.252Z,99.9
2019-04-14T20:15:04.727Z,99.9
2019-04-14T20:20:07.191Z,99.9
2019-04-14T20:25:09.653Z,99.9
2019-04-14T20:35:14.929Z,99.9
2019-04-14T20:40:17.050Z,99.9
2019-04-14T20:45:19.488Z,99.9
2019-04-14T20:50:22.244Z,99.9
2019-04-14T20:55:24.420Z,99.9
2019-04-14T21:00:27.030Z,99.9
2019-04-14T21:10:31.819Z,99.9
2019-04-14T21:15:34.257Z,99.9
2019-04-14T21:20:36.725Z,99.9
2019-04-14T21:25:39.162Z,99.9
2019-04-14T21:30:41.636Z,99.9
2019-04-14T21:35:44.109Z,99.9
2019-04-14T21:40:46.604Z,99.9
2019-04-14T21:45:49.047Z,99.9
2019-04-14T21:50:51.525Z,99.9
2019-04-14T21:55:53.988Z,99.9
2019-04-14T22:00:56.412Z,99.9
2019-04-14T22:05:58.876Z,99.9
2019-04-14T22:11:01.675Z,99.9
2019-04-14T22:16:03.769Z,99.9
2019-04-14T22:21:06.334Z,99.9
2019-04-14T22:26:08.719Z,99.9
2019-04-14T22:31:11.166Z,99.9
2019-04-14T22:36:13.688Z,99.9
2019-04-14T22:41:16.430Z,99.9
2019-04-14T22:46:18.566Z,99.9
2019-04-14T22:51:21.185Z,99.9
2019-04-14T22:56:23.517Z,99.9
2019-04-14T23:01:25.914Z,99.9
2019-04-14T23:06:28.607Z,99.9
2019-04-14T23:11:31.326Z,99.9
2019-04-14T23:16:33.320Z,99.9
2019-04-14T23:21:35.896Z,99.9
2019-04-14T23:26:51.349Z,99.9
2019-04-14T23:31:40.821Z,99.9
2019-04-14T23:36:43.260Z,99.9
2019-04-14T23:41:45.985Z,99.9
2019-04-14T23:46:48.132Z,99.9
2019-04-14T23:51:50.631Z,99.9
2019-04-14T23:57:04.630Z,99.9
